Cap Bianco — A8OK5 — position and weather

sailwx.info

Track history (hours):
 
Tides and Currents Weather Stations Pressure Air Temp Water Temp Dewpoint Dewpoint Depression Visibility Wind Speed Wind Dir Waves Ship Positions

Cap Bianco

Last reported at 2014-Sep-17 12:30 UTC. Time now 2014-Sep-17 15:40 UTC.
Position S 34°38' W 058°20'.

Length 222 m; draft 9.7 m.

Type: Cargo ship. MMSI: 636091489.

Date/timePositionNaut miles runAvg speedWind from/ knotsBaromVisibWave heightAir tempDewpointWater temp
2014-Sep-17 12:30S 34°38' W 058°20'1010.9
2014-Sep-17 11:33S 34°38' W 058°07'1312.9
2014-Sep-17 10:33S 34°42' W 057°53'4 4.4
2014-Sep-17 09:33S 34°44' W 057°48'9 9.2
2014-Sep-17 08:33S 34°45' W 057°37'1411.9
2014-Sep-17 07:25S 34°51' W 057°22'1113.2
2014-Sep-17 06:33S 34°60' W 057°13'1212.1
2014-Sep-17 05:32S 35°08' W 057°02'1311.7
2014-Sep-17 04:27S 35°10' W 056°47'1112.8
2014-Sep-17 03:33S 35°10' W 056°33'  
2014-Sep-08 07:33S 35°07' W 057°05'21 2.5
2014-Sep-07 23:18S 34°52' W 057°22'911.6
2014-Sep-07 22:33S 34°47' W 057°31'1414.6
2014-Sep-07 21:33S 34°44' W 057°48'1110.7
2014-Sep-07 20:33S 34°40' W 058°01'1413.4
2014-Sep-07 19:29S 34°35' W 058°17'  
Track history (hours):
 
Tides and Currents Weather Stations Pressure Air Temp Water Temp Dewpoint Dewpoint Depression Visibility Wind Speed Wind Dir Waves Ship Positions

Cap Bianco

Last reported at 2014-Sep-17 12:30 UTC. Time now 2014-Sep-17 15:40 UTC.
Position S 34°38' W 058°20'.

Length 222 m; draft 9.7 m.

Type: Cargo ship. MMSI: 636091489.

Date/timePositionNaut miles runAvg speedWind from/ knotsBaromVisibWave heightAir tempDewpointWater temp
2014-Sep-17 12:30S 34°38' W 058°20'1010.9
2014-Sep-17 11:33S 34°38' W 058°07'1312.9
2014-Sep-17 10:33S 34°42' W 057°53'4 4.4
2014-Sep-17 09:33S 34°44' W 057°48'9 9.2
2014-Sep-17 08:33S 34°45' W 057°37'1411.9
2014-Sep-17 07:25S 34°51' W 057°22'1113.2
2014-Sep-17 06:33S 34°60' W 057°13'1212.1
2014-Sep-17 05:32S 35°08' W 057°02'1311.7
2014-Sep-17 04:27S 35°10' W 056°47'1112.8
2014-Sep-17 03:33S 35°10' W 056°33'  
2014-Sep-08 07:33S 35°07' W 057°05'21 2.5
2014-Sep-07 23:18S 34°52' W 057°22'911.6
2014-Sep-07 22:33S 34°47' W 057°31'1414.6
2014-Sep-07 21:33S 34°44' W 057°48'1110.7
2014-Sep-07 20:33S 34°40' W 058°01'1413.4
2014-Sep-07 19:29S 34°35' W 058°17'  

Dump ship's entire track history